createdAt,value
2023-04-01T00:01:08.091Z,98187.00
2023-04-01T00:03:45.487Z,98182.00
2023-04-01T00:06:21.193Z,98184.00
2023-04-01T00:08:54.858Z,98173.00
2023-04-01T00:11:29.945Z,98162.00
2023-04-01T00:14:03.954Z,98170.00
2023-04-01T00:16:38.541Z,98174.00
2023-04-01T00:19:14.025Z,98172.00
2023-04-01T00:21:49.304Z,98171.00
2023-04-01T00:24:22.877Z,98171.00
2023-04-01T00:26:57.400Z,98167.00
2023-04-01T00:29:32.072Z,98167.00
2023-04-01T00:32:07.433Z,98171.00
2023-04-01T00:34:43.257Z,98164.00
2023-04-01T00:37:17.283Z,98164.00
2023-04-01T00:39:53.385Z,98163.00
2023-04-01T00:42:27.115Z,98162.00
2023-04-01T00:45:21.889Z,98157.00
2023-04-01T00:47:56.292Z,98158.00
2023-04-01T00:50:35.333Z,98156.00
2023-04-01T00:53:11.637Z,98155.00
2023-04-01T00:55:53.777Z,98159.00
2023-04-01T00:58:35.454Z,98141.00
2023-04-01T01:01:12.199Z,98155.00
2023-04-01T01:03:46.157Z,98156.00
2023-04-01T01:06:46.619Z,98156.00
2023-04-01T01:09:33.927Z,98156.00
2023-04-01T01:12:16.430Z,98161.00
2023-04-01T01:15:04.095Z,98156.00
2023-04-01T01:17:54.953Z,98156.00
2023-04-01T01:21:19.151Z,98161.00
2023-04-01T01:24:41.438Z,98151.00
2023-04-01T01:27:19.754Z,98151.00
2023-04-01T01:30:28.440Z,98146.00
2023-04-01T01:33:39.200Z,98143.00
2023-04-01T01:36:17.107Z,98141.00
2023-04-01T01:38:54.006Z,98143.00
2023-04-01T01:41:30.202Z,98144.00
2023-04-01T01:44:09.830Z,98140.00
2023-04-01T01:46:47.113Z,98150.00
2023-04-01T01:49:22.919Z,98109.00
2023-04-01T01:51:58.476Z,98141.00
2023-04-01T01:54:32.691Z,98147.00
2023-04-01T01:57:12.362Z,98148.00
2023-04-01T01:59:50.790Z,98145.00
2023-04-01T02:02:26.298Z,98147.00
2023-04-01T02:05:01.254Z,98137.00
2023-04-01T02:07:41.963Z,98141.00
2023-04-01T02:10:16.958Z,98141.00
2023-04-01T02:12:52.959Z,98142.00
2023-04-01T02:15:32.738Z,98136.00
2023-04-01T02:18:08.488Z,98142.00
2023-04-01T02:20:44.542Z,98139.00
2023-04-01T02:23:20.030Z,98144.00
2023-04-01T02:25:54.337Z,98138.00
2023-04-01T02:28:30.940Z,98147.00
2023-04-01T02:31:06.761Z,98148.00
2023-04-01T02:33:42.970Z,98138.00
2023-04-01T02:36:18.754Z,98135.00
2023-04-01T02:39:00.561Z,98133.00
2023-04-01T02:41:40.903Z,98147.00
2023-04-01T02:44:17.415Z,98144.00
2023-04-01T02:46:51.728Z,98144.00
2023-04-01T02:49:25.721Z,98151.00
2023-04-01T02:51:59.922Z,98147.00
2023-04-01T02:54:35.303Z,98144.00
2023-04-01T02:57:09.395Z,98145.00
2023-04-01T02:59:44.223Z,98143.00
2023-04-01T03:02:19.165Z,98141.00
2023-04-01T03:04:53.261Z,98146.00
2023-04-01T03:07:26.889Z,98149.00
2023-04-01T03:10:02.413Z,98154.00
2023-04-01T03:12:36.596Z,98161.00
2023-04-01T03:15:14.740Z,98170.00
2023-04-01T03:17:49.155Z,98173.00
2023-04-01T03:20:23.072Z,98170.00
2023-04-01T03:22:57.045Z,98170.00
2023-04-01T03:25:32.290Z,98167.00
2023-04-01T03:28:06.452Z,98160.00
2023-04-01T03:30:40.676Z,98157.00
2023-04-01T03:33:14.316Z,98164.00
2023-04-01T03:35:48.000Z,98171.00
2023-04-01T03:38:22.140Z,98165.00
2023-04-01T03:40:57.759Z,98161.00
2023-04-01T03:43:32.014Z,98171.00
2023-04-01T03:46:06.260Z,98171.00
2023-04-01T03:48:40.145Z,98171.00
2023-04-01T03:51:13.914Z,98183.00
2023-04-01T03:53:47.599Z,98180.00
2023-04-01T03:56:23.192Z,98181.00
2023-04-01T03:58:56.858Z,98177.00
2023-04-01T04:01:31.088Z,98179.00
2023-04-01T04:04:05.949Z,98178.00
2023-04-01T04:06:39.963Z,98180.00
2023-04-01T04:09:14.046Z,98182.00
2023-04-01T04:11:49.327Z,98176.00
2023-04-01T04:14:23.107Z,98188.00
2023-04-01T04:16:57.087Z,98185.00
2023-04-01T04:19:35.932Z,98187.00
2023-04-01T04:22:09.916Z,98189.00
2023-04-01T04:24:43.660Z,98193.00
2023-04-01T04:27:19.716Z,98186.00
2023-04-01T04:29:53.386Z,98193.00
2023-04-01T04:32:29.296Z,98187.00
2023-04-01T04:35:04.061Z,98192.00
2023-04-01T04:37:38.359Z,98191.00
2023-04-01T04:40:14.125Z,98192.00
2023-04-01T04:42:49.911Z,98193.00
2023-04-01T04:45:23.807Z,98188.00
2023-04-01T04:47:58.505Z,98191.00
2023-04-01T04:50:33.956Z,98195.00
2023-04-01T04:53:08.114Z,98206.00
2023-04-01T04:55:47.002Z,98205.00
2023-04-01T04:58:22.678Z,98201.00
2023-04-01T05:00:57.067Z,98211.00
2023-04-01T05:03:32.601Z,98210.00
2023-04-01T05:06:08.214Z,98211.00
2023-04-01T05:08:44.113Z,98207.00
2023-04-01T05:11:21.059Z,98212.00
2023-04-01T05:13:56.317Z,98210.00
2023-04-01T05:16:31.053Z,98223.00
2023-04-01T05:19:05.025Z,98219.00
2023-04-01T05:21:38.671Z,98215.00
2023-04-01T05:24:12.581Z,98222.00
2023-04-01T05:26:46.184Z,98214.00
2023-04-01T05:29:21.765Z,98220.00
2023-04-01T05:31:56.283Z,98219.00
2023-04-01T05:34:30.299Z,98217.00
2023-04-01T05:37:04.092Z,98229.00
2023-04-01T05:39:40.351Z,98231.00
2023-04-01T05:42:14.707Z,98229.00
2023-04-01T05:44:50.482Z,98236.00
2023-04-01T05:47:24.447Z,98234.00
2023-04-01T05:49:58.536Z,98231.00
2023-04-01T05:52:32.172Z,98220.00
2023-04-01T05:55:07.188Z,98226.00
2023-04-01T05:57:40.860Z,98234.00
2023-04-01T06:00:20.830Z,98242.00
2023-04-01T06:02:54.973Z,98238.00
2023-04-01T06:05:33.256Z,98238.00
2023-04-01T06:08:14.431Z,98241.00
2023-04-01T06:11:16.081Z,98248.00
2023-04-01T06:14:19.775Z,98245.00
2023-04-01T06:17:21.785Z,98245.00
2023-04-01T06:20:07.740Z,98250.00
2023-04-01T06:23:13.610Z,98248.00
2023-04-01T06:26:09.349Z,98255.00
2023-04-01T06:29:21.739Z,98257.00
2023-04-01T06:32:51.152Z,98249.00
2023-04-01T06:35:55.033Z,98260.00
2023-04-01T06:38:55.377Z,98257.00
2023-04-01T06:42:00.047Z,98255.00
2023-04-01T06:44:51.564Z,98271.00
2023-04-01T06:47:45.641Z,98265.00
2023-04-01T06:50:32.414Z,98272.00
2023-04-01T06:53:20.399Z,98269.00
2023-04-01T06:56:02.452Z,98274.00
2023-04-01T06:58:44.439Z,98271.00
2023-04-01T07:01:27.097Z,98274.00
2023-04-01T07:04:12.395Z,98275.00
2023-04-01T07:06:53.914Z,98278.00
2023-04-01T07:09:35.376Z,98274.00
2023-04-01T07:12:21.518Z,98284.00
2023-04-01T07:14:59.334Z,98275.00
2023-04-01T07:17:38.772Z,98286.00
2023-04-01T07:20:27.532Z,98287.00
2023-04-01T07:23:04.789Z,98292.00
2023-04-01T07:25:44.198Z,98293.00
2023-04-01T07:28:19.243Z,98294.00
2023-04-01T07:31:09.823Z,98287.00
2023-04-01T07:33:57.085Z,98299.00
2023-04-01T07:36:42.138Z,98300.00
2023-04-01T07:39:35.324Z,98303.00
2023-04-01T07:42:22.120Z,98303.00
2023-04-01T07:45:11.941Z,98309.00
2023-04-01T07:48:06.346Z,98306.00
2023-04-01T07:50:51.897Z,98311.00
2023-04-01T07:53:39.024Z,98322.00
2023-04-01T07:56:19.894Z,98316.00
2023-04-01T07:59:07.421Z,98316.00
2023-04-01T08:01:52.080Z,98325.00
2023-04-01T08:04:52.898Z,98328.00
2023-04-01T08:07:34.559Z,98323.00
2023-04-01T08:10:21.172Z,98329.00
2023-04-01T08:13:09.216Z,98331.00
2023-04-01T08:15:55.849Z,98337.00
2023-04-01T08:18:44.087Z,98342.00
2023-04-01T08:21:24.359Z,98340.00
2023-04-01T08:24:02.855Z,98326.00
2023-04-01T08:26:46.228Z,98352.00
2023-04-01T08:29:24.870Z,98335.00
2023-04-01T08:32:05.839Z,98352.00
2023-04-01T08:34:43.110Z,98352.00
2023-04-01T08:37:23.122Z,98349.00
2023-04-01T08:40:04.375Z,98342.00
2023-04-01T08:43:07.559Z,98356.00
2023-04-01T08:46:20.033Z,98364.00
2023-04-01T08:49:20.641Z,98369.00
2023-04-01T08:52:30.554Z,98376.00
2023-04-01T08:55:33.747Z,98369.00
2023-04-01T08:58:53.363Z,98384.00
2023-04-01T09:02:18.242Z,98385.00
2023-04-01T09:05:37.601Z,98389.00
2023-04-01T09:08:34.315Z,98389.00
2023-04-01T09:11:24.453Z,98396.00
2023-04-01T09:14:44.003Z,98393.00
2023-04-01T09:18:08.806Z,98406.00
2023-04-01T09:21:11.125Z,98408.00
2023-04-01T09:24:35.961Z,98411.00
2023-04-01T09:27:29.781Z,98419.00
2023-04-01T09:30:44.868Z,98417.00
2023-04-01T09:34:06.757Z,98427.00
2023-04-01T09:36:49.150Z,98427.00
2023-04-01T09:39:42.551Z,98435.00
2023-04-01T09:42:45.324Z,98434.00
2023-04-01T09:45:41.281Z,98429.00
2023-04-01T09:48:42.966Z,98441.00
2023-04-01T09:51:38.320Z,98433.00
2023-04-01T09:54:41.452Z,98439.00
2023-04-01T09:58:26.324Z,98448.00
2023-04-01T10:01:37.236Z,98445.00
2023-04-01T10:05:06.092Z,98447.00
2023-04-01T10:08:28.303Z,98454.00
2023-04-01T10:11:53.168Z,98461.00
2023-04-01T10:15:07.036Z,98463.00
2023-04-01T10:18:44.673Z,98458.00
2023-04-01T10:22:11.092Z,98472.00
2023-04-01T10:25:37.803Z,98467.00
2023-04-01T10:28:50.840Z,98467.00
2023-04-01T10:32:15.110Z,98475.00
2023-04-01T10:35:42.262Z,98477.00
2023-04-01T10:39:04.871Z,98475.00
2023-04-01T10:42:42.881Z,98475.00
2023-04-01T10:46:28.816Z,98480.00
2023-04-01T10:49:39.840Z,98476.00
2023-04-01T10:53:11.697Z,98474.00
2023-04-01T10:56:59.904Z,98480.00
2023-04-01T11:00:16.064Z,98484.00
2023-04-01T11:04:02.964Z,98488.00
2023-04-01T11:07:39.026Z,98490.00
2023-04-01T11:11:15.996Z,98494.00
2023-04-01T11:14:39.855Z,98500.00
2023-04-01T11:18:06.236Z,98504.00
2023-04-01T11:21:50.665Z,98507.00
2023-04-01T11:25:10.341Z,98511.00
2023-04-01T11:28:30.281Z,98520.00
2023-04-01T11:31:36.975Z,98523.00
2023-04-01T11:34:43.409Z,98509.00
2023-04-01T11:37:40.515Z,98530.00
2023-04-01T11:40:33.027Z,98528.00
2023-04-01T11:43:32.256Z,98512.00
2023-04-01T11:46:14.161Z,98538.00
2023-04-01T11:49:03.809Z,98539.00
2023-04-01T11:52:03.897Z,98546.00
2023-04-01T11:55:22.208Z,98550.00
2023-04-01T11:58:39.181Z,98547.00
2023-04-01T12:01:45.621Z,98560.00
2023-04-01T12:05:13.481Z,98561.00
2023-04-01T12:08:05.462Z,98559.00
2023-04-01T12:10:51.553Z,98567.00
2023-04-01T12:13:45.882Z,98579.00
2023-04-01T12:16:54.133Z,98576.00
2023-04-01T12:19:42.496Z,98576.00
2023-04-01T12:22:36.661Z,98584.00
2023-04-01T12:25:31.817Z,98582.00
2023-04-01T12:28:24.301Z,98569.00
2023-04-01T12:31:25.772Z,98585.00
2023-04-01T12:35:06.319Z,98598.00
2023-04-01T12:37:53.348Z,98595.00
2023-04-01T12:41:04.739Z,98597.00
2023-04-01T12:44:26.188Z,98600.00
2023-04-01T12:47:44.785Z,98602.00
2023-04-01T12:51:03.932Z,98609.00
2023-04-01T12:54:02.406Z,98613.00
2023-04-01T12:56:50.147Z,98606.00
2023-04-01T12:59:55.795Z,98620.00
2023-04-01T13:02:51.013Z,98624.00
2023-04-01T13:06:23.044Z,98619.00
2023-04-01T13:09:18.014Z,98635.00
2023-04-01T13:12:31.624Z,98638.00
2023-04-01T13:15:37.357Z,98641.00
2023-04-01T13:18:31.602Z,98649.00
2023-04-01T13:21:17.910Z,98648.00
2023-04-01T13:24:07.665Z,98653.00
2023-04-01T13:26:55.560Z,98652.00
2023-04-01T13:29:37.080Z,98662.00
2023-04-01T13:35:39.857Z,98658.00
2023-04-01T13:38:47.433Z,98669.00
2023-04-01T13:41:38.021Z,98676.00
2023-04-01T13:44:20.275Z,98679.00
2023-04-01T13:47:44.069Z,98676.00
2023-04-01T13:50:35.327Z,98679.00
2023-04-01T13:53:33.938Z,98675.00
2023-04-01T13:56:33.348Z,98687.00
2023-04-01T13:59:43.990Z,98687.00
2023-04-01T14:02:58.598Z,98692.00
2023-04-01T14:06:21.339Z,98693.00
2023-04-01T14:09:33.509Z,98690.00
2023-04-01T14:12:15.862Z,98695.00
2023-04-01T14:15:09.657Z,98696.00
2023-04-01T14:18:06.899Z,98705.00
2023-04-01T14:20:44.318Z,98708.00
2023-04-01T14:23:51.975Z,98706.00
2023-04-01T14:26:59.433Z,98703.00
2023-04-01T14:29:44.730Z,98716.00
2023-04-01T14:32:37.582Z,98717.00
2023-04-01T14:35:39.578Z,98719.00
2023-04-01T14:38:51.576Z,98722.00
2023-04-01T14:41:45.838Z,98731.00
2023-04-01T14:44:47.636Z,98732.00
2023-04-01T14:47:44.922Z,98733.00
2023-04-01T14:50:23.972Z,98730.00
2023-04-01T14:53:15.379Z,98740.00
2023-04-01T14:55:56.372Z,98739.00
2023-04-01T14:58:47.615Z,98745.00
2023-04-01T15:01:43.989Z,98749.00
2023-04-01T15:04:55.483Z,98748.00
2023-04-01T15:08:04.613Z,98747.00
2023-04-01T15:11:31.454Z,98750.00
2023-04-01T15:14:39.503Z,98766.00
2023-04-01T15:17:45.908Z,98758.00
2023-04-01T15:20:45.276Z,98773.00
2023-04-01T15:23:48.942Z,98766.00
2023-04-01T15:26:40.199Z,98774.00
2023-04-01T15:29:54.540Z,98782.00
2023-04-01T15:32:43.461Z,98779.00
2023-04-01T15:35:33.044Z,98775.00
2023-04-01T15:38:18.410Z,98794.00
2023-04-01T15:41:03.962Z,98787.00
2023-04-01T15:43:45.632Z,98798.00
2023-04-01T15:46:47.227Z,98788.00
2023-04-01T15:49:39.308Z,98803.00
2023-04-01T15:52:25.007Z,98802.00
2023-04-01T15:55:30.157Z,98803.00
2023-04-01T15:58:41.042Z,98817.00
2023-04-01T16:01:32.658Z,98809.00
2023-04-01T16:04:35.288Z,98817.00
2023-04-01T16:07:25.754Z,98820.00
2023-04-01T16:10:24.203Z,98825.00
2023-04-01T16:13:23.876Z,98825.00
2023-04-01T16:16:13.536Z,98830.00
2023-04-01T16:19:25.308Z,98832.00
2023-04-01T16:22:07.728Z,98827.00
2023-04-01T16:24:49.387Z,98833.00
2023-04-01T16:27:36.136Z,98844.00
2023-04-01T16:30:36.246Z,98849.00
2023-04-01T16:33:23.756Z,98841.00
2023-04-01T16:36:17.177Z,98846.00
2023-04-01T16:38:58.214Z,98852.00
2023-04-01T16:41:38.995Z,98858.00
2023-04-01T16:44:22.684Z,98850.00
2023-04-01T16:46:59.471Z,98859.00
2023-04-01T16:49:43.427Z,98865.00
2023-04-01T16:52:33.521Z,98864.00
2023-04-01T16:55:20.248Z,98867.00
2023-04-01T16:58:00.437Z,98873.00
2023-04-01T17:00:43.725Z,98876.00
2023-04-01T17:03:26.503Z,98890.00
2023-04-01T17:06:34.206Z,98885.00
2023-04-01T17:09:44.197Z,98885.00
2023-04-01T17:12:30.704Z,98896.00
2023-04-01T17:15:19.513Z,98893.00
2023-04-01T17:18:04.127Z,98903.00
2023-04-01T17:20:49.000Z,98910.00
2023-04-01T17:23:31.702Z,98908.00
2023-04-01T17:26:33.648Z,98919.00
2023-04-01T17:29:21.469Z,98918.00
2023-04-01T17:32:11.339Z,98925.00
2023-04-01T17:35:05.114Z,98926.00
2023-04-01T17:37:54.700Z,98927.00
2023-04-01T17:40:46.890Z,98939.00
2023-04-01T17:43:33.568Z,98940.00
2023-04-01T17:46:35.637Z,98945.00
2023-04-01T17:49:31.528Z,98947.00
2023-04-01T17:52:21.102Z,98951.00
2023-04-01T17:55:02.923Z,98955.00
2023-04-01T17:57:52.864Z,98959.00
2023-04-01T18:00:53.026Z,98962.00
2023-04-01T18:04:07.269Z,98968.00
2023-04-01T18:07:16.558Z,98974.00
2023-04-01T18:10:12.430Z,98977.00
2023-04-01T18:13:21.807Z,98978.00
2023-04-01T18:16:16.464Z,98985.00
2023-04-01T18:19:02.233Z,98989.00
2023-04-01T18:21:48.858Z,98984.00
2023-04-01T18:24:31.136Z,98998.00
2023-04-01T18:27:14.615Z,99000.00
2023-04-01T18:29:56.209Z,99002.00
2023-04-01T18:32:42.302Z,99011.00
2023-04-01T18:35:31.085Z,99016.00
2023-04-01T19:07:46.186Z,99049.00
2023-04-01T19:10:33.820Z,99050.00
2023-04-01T19:13:22.731Z,99064.00
2023-04-01T19:16:09.689Z,99063.00
2023-04-01T19:19:09.376Z,99065.00
2023-04-01T19:21:49.270Z,99074.00
2023-04-01T19:25:14.554Z,99085.00
2023-04-01T19:27:53.691Z,99084.00
2023-04-01T19:30:44.558Z,99092.00
2023-04-01T19:33:41.732Z,99089.00
2023-04-01T19:36:30.490Z,99100.00
2023-04-01T19:39:26.698Z,99115.00
2023-04-01T19:42:14.187Z,99115.00
2023-04-01T19:45:05.476Z,99114.00
2023-04-01T19:48:01.850Z,99120.00
2023-04-01T19:50:42.525Z,99119.00
2023-04-01T19:53:34.550Z,99136.00
2023-04-01T19:56:19.065Z,99127.00
2023-04-01T19:59:02.155Z,99138.00
2023-04-01T20:01:45.483Z,99141.00
2023-04-01T20:04:29.188Z,99156.00
2023-04-01T20:07:12.902Z,99162.00
2023-04-01T20:10:02.704Z,99170.00
2023-04-01T20:12:51.852Z,99178.00
2023-04-01T20:15:38.159Z,99184.00
2023-04-01T20:18:20.779Z,99184.00
2023-04-01T20:21:00.658Z,99193.00
2023-04-01T20:23:43.929Z,99196.00
2023-04-01T20:26:27.702Z,99207.00
2023-04-01T20:29:24.770Z,99206.00
2023-04-01T20:32:17.512Z,99215.00
2023-04-01T20:35:28.037Z,99225.00
2023-04-01T20:38:59.909Z,99229.00
2023-04-01T20:41:45.474Z,99230.00
2023-04-01T20:44:36.958Z,99237.00
2023-04-01T20:47:26.756Z,99239.00
2023-04-01T20:50:21.318Z,99242.00
2023-04-01T20:53:07.418Z,99241.00
2023-04-01T20:56:19.090Z,99254.00
2023-04-01T20:59:04.830Z,99244.00
2023-04-01T21:01:49.847Z,99245.00
2023-04-01T21:04:56.446Z,99274.00
2023-04-01T21:07:36.699Z,99270.00
2023-04-01T21:10:35.128Z,99280.00
2023-04-01T21:13:30.366Z,99283.00
2023-04-01T21:16:25.023Z,99292.00
2023-04-01T21:19:28.527Z,99290.00
2023-04-01T21:22:39.467Z,99314.00
2023-04-01T21:25:34.112Z,99317.00
2023-04-01T21:28:38.135Z,99324.00
2023-04-01T21:31:28.207Z,99325.00
2023-04-01T21:34:49.586Z,99335.00
2023-04-01T21:38:03.235Z,99345.00
2023-04-01T21:41:04.754Z,99351.00
2023-04-01T21:44:23.718Z,99366.00
2023-04-01T21:47:30.572Z,99370.00
2023-04-01T21:50:56.317Z,99385.00
2023-04-01T21:54:24.468Z,99396.00
2023-04-01T21:57:55.378Z,99393.00
2023-04-01T22:00:34.775Z,99414.00
2023-04-01T22:04:03.866Z,99415.00
2023-04-01T22:06:43.036Z,99426.00
2023-04-01T22:09:32.008Z,99421.00
2023-04-01T22:12:16.147Z,99435.00
2023-04-01T22:14:59.915Z,99423.00
2023-04-01T22:17:44.262Z,99444.00
2023-04-01T22:20:30.211Z,99456.00
2023-04-01T22:23:25.299Z,99452.00
2023-04-01T22:26:11.305Z,99464.00
2023-04-01T22:28:57.804Z,99467.00
2023-04-01T22:31:41.765Z,99471.00
2023-04-01T22:34:24.964Z,99472.00
2023-04-01T22:37:09.398Z,99482.00
2023-04-01T22:40:18.676Z,99496.00
2023-04-01T22:43:01.783Z,99495.00
2023-04-01T22:46:06.216Z,99501.00
2023-04-01T22:48:48.919Z,99507.00
2023-04-01T22:51:30.526Z,99524.00
2023-04-01T22:54:15.893Z,99528.00
2023-04-01T22:56:57.813Z,99525.00
2023-04-01T22:59:46.029Z,99531.00
2023-04-01T23:02:28.253Z,99534.00
2023-04-01T23:05:06.386Z,99545.00
2023-04-01T23:07:51.078Z,99545.00
2023-04-01T23:10:31.266Z,99546.00
2023-04-01T23:13:08.120Z,99562.00
2023-04-01T23:15:44.209Z,99561.00
2023-04-01T23:18:28.156Z,99563.00
2023-04-01T23:21:17.088Z,99574.00
2023-04-01T23:24:05.619Z,99581.00
2023-04-01T23:26:46.540Z,99592.00
2023-04-01T23:29:22.872Z,99596.00
2023-04-01T23:32:02.955Z,99587.00
2023-04-01T23:34:38.757Z,99605.00
2023-04-01T23:37:17.745Z,99614.00
2023-04-01T23:39:54.380Z,99617.00
2023-04-01T23:42:31.776Z,99630.00
2023-04-01T23:45:18.496Z,99632.00
2023-04-01T23:47:55.157Z,99635.00
2023-04-01T23:50:30.500Z,99637.00
2023-04-01T23:53:19.086Z,99638.00
2023-04-01T23:55:54.926Z,99648.00
2023-04-01T23:58:43.648Z,99662.00
